Terminal Aerodrome Forecast
Issued by NWS Dallas/Fort Worth, TX

Home | Current Version | Previous Version | Text Only | Print | Product List | Glossary On
Versions: 1 2 3 4 5 6 7 8 9 10 11 12 13 14 15 16 17 18 19 20 21 22 23 24
370
FTUS44 KFWD 162107 AAA
TAFDFW
TAF AMD
KDFW 162107Z 1621/1724 18015KT P6SM -SHRA OVC060
     FM170000 17010KT 6SM SHRA OVC030
     FM170200 17008KT 4SM SHRA BR OVC010
     FM170500 17007KT 2SM BR OVC008
     FM171500 17006KT P6SM BKN015=

USA.gov is the U.S. government's official web portal to all federal, state and local government web resources and services.